Terminal Aerodrome Forecast
Issued by NWS

Home | Current Version | Previous Version | Text Only | Print | Product List | Glossary On
Versions: 1 2 3 4 5 6 7 8 9 10 11 12 13 14 15 16 17 18 19 20
000
FTUS43 KDTX 240839 AAA
TAFPTK
TAF AMD
KPTK 240839Z 2409/2506 35010KT P6SM BKN012 OVC022
     FM241700 33013KT P6SM SCT002 BKN035
     FM242000 35011KT P6SM SCT050
     FM250000 34006KT P6SM SKC=

USA.gov is the U.S. government's official web portal to all federal, state and local government web resources and services.